Bodega Marine Reserve, California Weather observations

Data are for 10 minute period ending at time listed.
 Day   Time   Solar   Ave.   Ave.  Ave.  Vector  Max.   Baro.   Total    
  of    of     Rad.   Air    Rel.  Wind   Wind   Wind  Press.  Precip.   
Year   Day            Temp.  Hum.  Speed  Dir.   Gust                    
2017   (PST)  Kw/m2    F      %     mph   deg.    mph    mb.     in.     
-------------------------------------------------------------------------
  54    9:10   0.17   44.4    58    9.5   325    14.1   1021.3    0.00 
  54    9:20   0.19   44.9    59    9.8   321    14.5   1021.3    0.00 
  54    9:30   0.22   45.2    60   13.7   310    20.4   1021.3    0.00 
  54    9:40   0.26   45.4    58   14.7   316    19.8   1021.3    0.00 
  54    9:50   0.29   45.8    58   14.8   312    19.8   1021.3    0.00 
  54   10:00   0.31   46.1    56   16.1   310    22.6   1021.0    0.00 
  54   10:10   0.34   46.3    54   16.6   311    22.4   1021.0    0.00 
  54   10:20   0.37   46.9    55   16.9   311    23.5   1021.0    0.00 
  54   10:30   0.40   47.3    55   15.8   311    21.4   1021.0    0.00 
  54   10:40   0.42   47.5    55   18.4   309    24.5   1021.0    0.00 
  54   10:50   0.45   47.8    54   17.1   309    22.2   1021.0    0.00 
  54   11:00   0.47   48.1    52   15.7   309    21.7   1021.0    0.00 
  54   11:10   0.50   48.4    52   15.1   313    20.2   1021.3    0.00 
  54   11:20   0.52   48.6    49   16.0   316    21.4   1021.3    0.00 
  54   11:30   0.54   48.7    50   14.7   313    21.3   1021.3    0.00 
  54   11:40   0.56   49.3    50   15.1   307    20.8   1021.3    0.00 
  54   11:50   0.57   49.5    51   14.9   306    20.2   1021.3    0.00 
  54   12:00   0.59   49.7    52   15.0   299    20.3   1021.3    0.00 
  54   12:10   0.60   50.2    51   14.5   298    20.5   1021.3    0.00 
  54   12:20   0.61   50.2    51   16.9   302    22.0   1021.3    0.00 
  54   12:30   0.62   50.3    51   15.2   302    20.2   1021.3    0.00 
  54   12:40   0.63   50.9    53   14.8   298    20.3   1021.0    0.00 
  54   12:50   0.64   50.6    52   14.9   303    21.0   1021.3    0.00 
  54   13:00   0.65   51.0    51   16.2   304    23.0   1021.0    0.00 
  54   13:10   0.65   51.4    52   15.5   299    23.0   1021.0    0.00 
  54   13:20   0.66   51.6    51   15.7   300    21.6   1021.0    0.00 
  54   13:30   0.66   51.8    52   15.8   297    22.1   1020.7    0.00 
  54   13:40   0.66   51.5    53   16.2   296    23.5   1020.7    0.00 
  54   13:50   0.65   51.2    53   16.4   294    22.4   1020.7    0.00 
  54   14:00   0.65   52.0    52   15.0   298    22.3   1020.7    0.00 
  54   14:10   0.65   51.8    52   14.8   296    22.5   1020.3    0.00 
  54   14:20   0.62   52.0    51   16.8   296    22.4   1020.3    0.00 
  54   14:30   0.63   51.6    53   17.6   297    24.4   1020.3    0.00 
  54   14:40   0.62   51.9    54   16.4   298    23.8   1020.0    0.00 
  54   14:50   0.61   51.7    53   18.1   296    25.3   1020.0    0.00 
  54   15:00   0.60   51.6    54   18.7   300    25.4   1020.0    0.00 
  54   15:10   0.58   51.6    53   18.2   301    24.3   1020.0    0.00 
  54   15:20   0.57   51.4    54   18.9   301    26.4   1019.6    0.00 
  54   15:30   0.55   51.7    54   18.3   302    25.4   1019.6    0.00 
  54   15:40   0.53   51.5    56   19.6   301    28.3   1019.6    0.00 
  54   15:50   0.51   51.2    55   21.1   302    27.0   1019.6    0.00 
  54   16:00   0.49   51.1    56   21.3   299    30.0   1019.6    0.00 
  54   16:10   0.46   51.2    58   19.9   304    27.6   1019.6    0.00 
  54   16:20   0.44   51.1    57   19.5   304    28.4   1019.6    0.00 
  54   16:30   0.41   50.8    58   19.3   303    26.2   1019.6    0.00 
  54   16:40   0.39   50.9    58   20.0   303    27.6   1019.3    0.00 
  54   16:50   0.36   50.6    58   20.3   305    27.7   1019.3    0.00 
  54   17:00   0.33   50.5    59   19.9   304    27.5   1019.3    0.00 
  54   17:10   0.30   50.4    59   20.1   299    27.5   1019.3    0.00 
  54   17:20   0.27   50.0    60   19.8   300    25.9   1019.0    0.00 
  54   17:30   0.24   49.7    61   19.8   301    28.9   1019.0    0.00 
  54   17:40   0.21   49.6    60   21.4   300    28.9   1019.0    0.00 
  54   17:50   0.18   49.2    60   21.5   301    28.6   1019.0    0.00 
  54   18:00   0.15   48.9    61   22.3   301    30.5   1019.0    0.00 
  54   18:10   0.12   48.7    61   22.5   304    30.0   1019.0    0.00 
  54   18:20   0.09   48.3    63   21.4   306    29.7   1019.0    0.00 
  54   18:30   0.04   48.2    64   21.2   306    29.7   1019.0    0.00 
  54   18:40   0.03   47.8    64   21.4   306    27.3   1019.0    0.00 
  54   18:50   0.02   47.6    64   21.0   308    28.5   1019.0    0.00 
  54   19:00   0.01   47.5    65   21.1   306    29.0   1019.0    0.00 
  54   19:10   0.00   47.3    66   20.5   306    27.5   1019.0    0.00 
  54   19:20   0.00   47.2    64   19.6   310    29.1   1019.0    0.00 
  54   19:30   0.00   47.3    65   18.9   309    27.2   1019.0    0.00 
  54   19:40   0.00   47.2    63   19.3   309    26.3   1019.3    0.00 
  54   19:50   0.00   47.1    64   18.8   306    25.2   1019.3    0.00 
  54   20:00   0.00   47.0    64   17.5   308    23.2   1019.3    0.00 
  54   20:10   0.00   46.8    67   16.3   307    22.1   1019.3    0.00 
  54   20:20   0.00   46.8    67   16.8   307    25.4   1019.3    0.00 
  54   20:30   0.00   46.8    66   18.5   312    25.6   1019.3    0.00 
  54   20:40   0.00   46.8    65   20.3   315    26.2   1019.3    0.00 
  54   20:50   0.00   46.7    66   19.2   315    24.4   1019.3    0.00 
  54   21:00   0.00   46.5    65   17.2   318    23.7   1019.3    0.00 
  54   21:10   0.00   46.2    64   17.5   318    23.1   1019.3    0.00 
  54   21:20   0.00   46.1    65   13.4   323    19.7   1019.3    0.00 
  54   21:30   0.00   45.5    66   11.1   324    15.8   1019.3    0.00 
  54   21:40   0.00   45.3    66   12.2   314    17.1   1019.3    0.00 
  54   21:50   0.00   45.3    65    9.1   329    14.2   1019.3    0.00 
  54   22:00   0.00   44.9    66    7.6   336    13.0   1019.6    0.00 
  54   22:10   100.00  99999.0   99999  99999.0   99999   99999.0   99999.0   99999.00 
  54   22:20   100.00  99999.0   99999  99999.0   99999   99999.0   99999.0   99999.00 
  54   22:30   100.00  99999.0   99999  99999.0   99999   99999.0   99999.0   99999.00 
  54   22:40   100.00  99999.0   99999  99999.0   99999   99999.0   99999.0   99999.00 
  54   22:50   100.00  99999.0   99999  99999.0   99999   99999.0   99999.0   99999.00 
  54   23:00   0.00   44.0    65    8.2   328    11.2   1020.3   99999.00 
  54   23:10   0.00   43.1    67    7.3   318     9.0   1020.3    0.00 
  54   23:20   0.00   41.4    70    5.9   326     7.5   1020.7    0.00 
  54   23:30   0.00   40.2    72    5.7   331     7.5   1020.7    0.00 
  54   23:40   0.00   39.6    73    6.1   333     7.1   1020.7    0.00 
  54   23:50   0.00   39.5    74    5.5   325     8.0   1020.7    0.00 
  55    0:00   0.00   39.3    75    6.1   333     8.1   1020.7    0.00 
  55    0:10   0.00   39.6    75    5.0   328     7.1   1020.7    0.00 
  55    0:20   0.00   39.6    75    4.8   326     7.8   1021.0    0.00 
  55    0:30   0.00   39.2    76    3.7   350     5.4   1021.0    0.00 
  55    0:40   0.00   38.9    76    1.3   110     2.3   1021.0    0.00 
  55    0:50   0.00   38.8    77    1.0   136     2.0   1021.0    0.00 
  55    1:00   0.00   37.7    77    0.5    68     2.2   1021.0    0.00 
  55    1:10   100.00  99999.0   99999  99999.0   99999   99999.0   99999.0   99999.00 
  55    1:20   100.00  99999.0   99999  99999.0   99999   99999.0   99999.0   99999.00 
  55    1:30   100.00  99999.0   99999  99999.0   99999   99999.0   99999.0   99999.00 
  55    1:40   100.00  99999.0   99999  99999.0   99999   99999.0   99999.0   99999.00 
  55    1:50   100.00  99999.0   99999  99999.0   99999   99999.0   99999.0   99999.00 
  55    2:00   0.00   38.0    78    0.3   134     1.2   99999.0   99999.00 
  55    2:10   0.00   36.8    79    0.1   143     0.8   1021.3    0.00 
  55    2:20   0.00   37.1    80    0.0   277     0.3   1021.0    0.00 
  55    2:30   0.00   37.2    78    0.8   307     1.5   1021.0    0.00 
  55    2:40   0.00   36.6    81    1.4   317     2.3   1021.3    0.00 
  55    2:50   0.00   35.6    79    2.9   318     5.2   1021.3    0.00 
  55    3:00   0.00   35.8    82    4.4   321     7.0   1021.0    0.00 
  55    3:10   0.00   36.8    83    5.4   324     6.6   1021.0    0.00 
  55    3:20   0.00   37.3    83    4.0   334     5.7   1021.0    0.00 
  55    3:30   0.00   37.9    83    4.1   324     5.6   1021.0    0.00 
  55    3:40   0.00   38.7    82    4.4   302     7.2   1021.0    0.00 
  55    3:50   0.00   38.5    80    5.6   310     8.6   1021.0    0.00 
  55    4:00   0.00   37.8    82    5.8   312     8.8   1020.7    0.00 
  55    4:10   0.00   37.6    82    6.0   316     9.1   1020.7    0.00 
  55    4:20   0.00   38.2    81    5.7   325     8.8   1020.3    0.00 
  55    4:30   0.00   38.3    79    5.7     0     8.5   1020.3    0.00 
  55    4:40   0.00   37.0    80    3.5     2     4.7   1020.3    0.00 
  55    4:50   0.00   37.0    80    4.6     1     5.9   1020.3    0.00 
  55    5:00   0.00   36.7    80    5.0   346     5.8   1020.0    0.00 
  55    5:10   0.00   36.6    79    4.5   339     6.5   1020.0    0.00 
  55    5:20   0.00   37.2    81    1.4   135     3.1   1020.3    0.00 
  55    5:30   0.00   37.2    79    0.9   111     2.0   1020.3    0.00 
  55    5:40   0.00   35.6    81    2.4   111     4.1   1020.7    0.00 
  55    5:50   0.00   35.8    82    2.8   113     4.4   1020.7    0.00 
  55    6:00   0.00   36.2    83    3.2   106     5.0   1020.7    0.00 
  55    6:10   0.00   36.5    83    2.7   113     4.6   1020.7    0.00 
  55    6:20   0.00   37.0    83    2.2   120     3.7   1020.7    0.00 
  55    6:30   0.00   36.9    82    2.0   139     2.9   1020.7    0.00 
  55    6:40   0.00   36.6    83    2.7   144     3.4   1020.7    0.00 
  55    6:50   0.00   37.1    84    2.4   135     3.9   1020.7    0.00 
  55    7:00   0.00   37.1    83    3.1   139     4.8   1020.7    0.00 
  55    7:10   0.00   38.1    82    3.9   127     5.7   1020.7    0.00 
  55    7:20   0.00   38.3    80    2.3   128     4.7   1020.7    0.00 
  55    7:30   0.00   37.7    80    2.6   150     4.2   1021.0    0.00 
  55    7:40   0.00   36.9    82    4.0   156     5.2   1021.0    0.00 
  55    7:50   0.00   37.0    83    4.4   139     6.2   1021.0    0.00 
  55    8:00   0.01   37.4    83    3.0   128     4.1   1021.0    0.00 
  55    8:10   0.02   37.8    84    3.4   118     5.4   1021.0    0.00 
  55    8:20   0.04   38.2    83    2.9   127     4.1   1021.0    0.00 
  55    8:30   0.06   38.7    81    2.9   107     4.5   1021.3    0.00 
  55    8:40   0.08   38.7    81    5.7    84     8.0   1021.3    0.00 
  55    8:50   0.11   39.6    80    3.4    93     5.8   1021.3    0.00 
  55    9:00   0.14   40.8    79    3.9    83     6.1   1021.7    0.00 

Return to Bodega Marine Reserve graphs page.


Western Regional Climate Center,wrcc@dri.edu